CheckWX is a tool to help pilots better visualize weather data.  It is not intended as a substitute for an official pre-flight weather briefing.

02:51:16 UTC

KOKC TAF
Will Rogers World Airport
Oklahoma City, Oklahoma, USA
KOKC 222322Z 2300/2324 23011KT P6SM VCTS BKN035CB BKN050 FM230300 36011KT P6SM BKN025 FM231200 04007KT P6SM OVC007 FM231800 06005KT P6SM BKN025 FM232100 11005KT P6SM SCT250

Sep-23@
00:00 UTC

Sep-23 @ 00:00 UTC

Sep-23@
03:00 UTC

Sep-23 @ 03:00 UTC

KOKC 222322Z 2300/2324 23011KT P6SM VCTS BKN035CB BKN050
Wind
  • 230° at 11 KTS
Conditions
Area Thunderstorm
Cloud Levels
  • Broken at 3,500' AGL
  • Broken at 5,000' AGL

Sep-23@
03:00 UTC

Sep-23 @ 03:00 UTC

Sep-23@
12:00 UTC

Sep-23 @ 12:00 UTC

FM230300 36011KT P6SM BKN025

From

From Standard forecast or significant change

Wind
  • 360° at 11 KTS
Cloud Levels
  • Broken at 2,500' AGL

Sep-23@
12:00 UTC

Sep-23 @ 12:00 UTC

Sep-23@
18:00 UTC

Sep-23 @ 18:00 UTC

FM231200 04007KT P6SM OVC007

From

From Standard forecast or significant change

Wind
  • 040° at 7 KTS
Cloud Levels
  • Overcast at 700' AGL

Sep-23@
18:00 UTC

Sep-23 @ 18:00 UTC

Sep-23@
21:00 UTC

Sep-23 @ 21:00 UTC

FM231800 06005KT P6SM BKN025

From

From Standard forecast or significant change

Wind
  • 060° at 5 KTS
Cloud Levels
  • Broken at 2,500' AGL

Sep-23@
21:00 UTC

Sep-23 @ 21:00 UTC

Sep-24@
00:00 UTC

Sep-24 @ 00:00 UTC

FM232100 11005KT P6SM SCT250

From

From Standard forecast or significant change

Wind
  • 110° at 5 KTS
Cloud Levels
  • Scattered at 25,000' AGL